Time;durP1;ratioP1;P1;durP2;ratioP2;P2;SDS_P1;SDS_P2;PMS_P1;PMS_P2;Temp;Humidity;BMP_temperature;BMP_pressure;BME280_temperature;BME280_humidity;BME280_pressure;Samples;Min_cycle;Max_cycle;Signal;HPM_P1;HPM_P2
2022/04/25 00:00:40;;;;;;;6.70;5.87;;;;;;;;;;5073196;28;20400;-51
2022/04/25 00:03:06;;;;;;;5.33;4.37;;;;;;;;;;5072980;28;20487;-51
2022/04/25 00:05:32;;;;;;;5.73;5.13;;;;;;;;;;5073371;28;20393;-51
2022/04/25 00:07:58;;;;;;;5.87;5.10;;;;;;;;;;5073422;28;20404;-51
2022/04/25 00:10:24;;;;;;;6.60;5.30;;;;;;;;;;5073376;28;20405;-51
2022/04/25 00:12:50;;;;;;;6.00;5.40;;;;;;;;;;5072524;28;20440;-51
2022/04/25 00:15:16;;;;;;;6.40;5.80;;;;;;;;;;5073329;28;20407;-52
2022/04/25 00:17:42;;;;;;;6.20;5.60;;;;;;;;;;5072868;28;20486;-52
2022/04/25 00:20:08;;;;;;;5.33;4.83;;;;;;;;;;5073111;28;20401;-51
2022/04/25 00:22:34;;;;;;;6.90;5.30;;;;;;;;;;5072377;28;20460;-51
2022/04/25 00:25:02;;;;;;;7.03;5.63;;;;;;;;;;5073173;28;20435;-51
2022/04/25 00:27:29;;;;;;;5.70;5.30;;;;;;;;;;5072866;28;20419;-51
2022/04/25 00:29:55;;;;;;;6.90;5.90;;;;;;;;;;5072901;28;20457;-52
2022/04/25 00:32:21;;;;;;;8.77;7.87;;;;;;;;;;5071921;28;20443;-51
2022/04/25 00:34:47;;;;;;;7.43;6.70;;;;;;;;;;5072924;28;20404;-51
2022/04/25 00:37:13;;;;;;;9.13;7.60;;;;;;;;;;5072730;28;20419;-52
2022/04/25 00:39:39;;;;;;;8.70;7.80;;;;;;;;;;5071997;28;20403;-52
2022/04/25 00:42:05;;;;;;;10.80;7.93;;;;;;;;;;5071479;28;20300;-51
2022/04/25 00:44:32;;;;;;;11.73;7.40;;;;;;;;;;5072701;28;20397;-51
2022/04/25 00:46:59;;;;;;;16.33;7.67;;;;;;;;;;5072414;28;21072;-51
2022/04/25 00:49:25;;;;;;;10.30;7.80;;;;;;;;;;5072515;28;20430;-51
2022/04/25 00:51:52;;;;;;;13.20;7.53;;;;;;;;;;5071531;28;20961;-50
2022/04/25 00:54:18;;;;;;;12.43;7.50;;;;;;;;;;5072497;28;20768;-51
2022/04/25 00:56:46;;;;;;;13.60;7.77;;;;;;;;;;5072216;28;20500;-50
2022/04/25 00:59:13;;;;;;;8.47;7.57;;;;;;;;;;5072328;28;20408;-51
2022/04/25 01:01:40;;;;;;;11.40;7.73;;;;;;;;;;5070537;28;20492;-51
2022/04/25 01:04:06;;;;;;;8.80;6.37;;;;;;;;;;5071686;28;20894;-52
2022/04/25 01:06:32;;;;;;;14.67;7.10;;;;;;;;;;5071684;28;20460;-51
2022/04/25 01:08:58;;;;;;;7.97;6.80;;;;;;;;;;5072294;28;20430;-52
2022/04/25 01:11:24;;;;;;;7.80;7.10;;;;;;;;;;5071443;28;20426;-50
2022/04/25 01:13:50;;;;;;;8.70;7.13;;;;;;;;;;5072094;28;20417;-52
2022/04/25 01:16:16;;;;;;;12.10;6.90;;;;;;;;;;5072030;28;20396;-51
2022/04/25 01:18:42;;;;;;;10.33;6.10;;;;;;;;;;5071693;28;20423;-51
2022/04/25 01:21:11;;;;;;;8.50;6.27;;;;;;;;;;5071418;28;20789;-51
2022/04/25 01:29:09;;;;;;;7.60;6.70;;;;;;;;;;5051878;28;21017;-53
2022/04/25 01:31:35;;;;;;;8.40;6.87;;;;;;;;;;5051278;28;20462;-51
2022/04/25 01:34:01;;;;;;;7.40;6.57;;;;;;;;;;5070962;28;20423;-51
2022/04/25 01:36:27;;;;;;;10.87;6.93;;;;;;;;;;5072091;28;20418;-52
2022/04/25 01:38:54;;;;;;;8.97;7.53;;;;;;;;;;5071431;28;20416;-51
2022/04/25 01:41:20;;;;;;;8.17;7.20;;;;;;;;;;5071134;28;20456;-51
2022/04/25 01:43:46;;;;;;;8.47;7.40;;;;;;;;;;5071552;28;20792;-51
2022/04/25 01:46:12;;;;;;;11.50;7.53;;;;;;;;;;5071745;28;20879;-52
2022/04/25 01:48:38;;;;;;;16.10;6.63;;;;;;;;;;5071464;28;20441;-51
2022/04/25 01:51:04;;;;;;;8.70;7.30;;;;;;;;;;5070892;28;20776;-52
2022/04/25 01:53:30;;;;;;;10.03;7.83;;;;;;;;;;5071854;28;20427;-51
2022/04/25 01:55:56;;;;;;;8.80;7.57;;;;;;;;;;5071629;28;20418;-51
2022/04/25 01:58:24;;;;;;;6.40;5.80;;;;;;;;;;5071112;28;20459;-51
2022/04/25 02:00:50;;;;;;;9.83;6.63;;;;;;;;;;5070979;28;20403;-52
2022/04/25 02:03:16;;;;;;;8.33;7.53;;;;;;;;;;5071274;28;20474;-51
2022/04/25 02:05:42;;;;;;;7.67;6.87;;;;;;;;;;5071760;28;20408;-51
2022/04/25 02:08:08;;;;;;;8.63;7.80;;;;;;;;;;5071273;28;20910;-51
2022/04/25 02:10:34;;;;;;;7.97;6.57;;;;;;;;;;5071485;28;20967;-52
2022/04/25 02:13:01;;;;;;;9.50;7.57;;;;;;;;;;5070886;28;20508;-52
2022/04/25 02:15:27;;;;;;;12.87;7.53;;;;;;;;;;5071800;28;20739;-52
2022/04/25 02:20:56;;;;;;;12.60;8.20;;;;;;;;;;5070223;28;20407;-51
2022/04/25 02:23:23;;;;;;;6.63;5.93;;;;;;;;;;5071043;28;20492;-51
2022/04/25 02:25:49;;;;;;;12.70;6.80;;;;;;;;;;5071408;28;20415;-52
2022/04/25 02:28:15;;;;;;;7.97;6.57;;;;;;;;;;5071171;28;20499;-51
2022/04/25 02:30:41;;;;;;;7.00;6.30;;;;;;;;;;5071380;28;20407;-48
2022/04/25 02:33:07;;;;;;;6.27;5.67;;;;;;;;;;5070576;28;20504;-48
2022/04/25 02:35:33;;;;;;;7.00;5.80;;;;;;;;;;5074403;28;20411;-48
2022/04/25 02:37:59;;;;;;;7.70;6.40;;;;;;;;;;5074845;28;20424;-49
2022/04/25 02:40:25;;;;;;;8.23;5.83;;;;;;;;;;5074993;28;20419;-51
2022/04/25 02:42:51;;;;;;;7.67;6.90;;;;;;;;;;5074095;28;20509;-48
2022/04/25 02:45:17;;;;;;;8.87;7.10;;;;;;;;;;5075023;28;20412;-48
2022/04/25 02:47:44;;;;;;;7.03;5.93;;;;;;;;;;5074879;28;20412;-47
2022/04/25 02:50:10;;;;;;;13.10;5.90;;;;;;;;;;5074882;28;20401;-51
2022/04/25 02:52:36;;;;;;;7.20;6.50;;;;;;;;;;5073948;28;20447;-51
2022/04/25 02:55:02;;;;;;;8.50;6.67;;;;;;;;;;5074823;28;20447;-52
2022/04/25 02:57:28;;;;;;;7.40;6.60;;;;;;;;;;5074594;28;20419;-48
2022/04/25 02:59:54;;;;;;;9.30;6.80;;;;;;;;;;5090382;28;20411;-47
2022/04/25 03:02:20;;;;;;;11.97;8.40;;;;;;;;;;5073752;28;20481;-47
2022/04/25 03:04:46;;;;;;;10.20;8.23;;;;;;;;;;5074710;28;20410;-48
2022/04/25 03:07:12;;;;;;;10.90;8.70;;;;;;;;;;5074631;28;20396;-49
2022/04/25 03:09:38;;;;;;;11.67;9.60;;;;;;;;;;5074616;28;20469;-47
2022/04/25 03:12:05;;;;;;;9.70;8.63;;;;;;;;;;5073623;28;20482;-48
2022/04/25 03:14:31;;;;;;;9.77;8.13;;;;;;;;;;5074539;28;20464;-48
2022/04/25 03:16:57;;;;;;;7.63;6.57;;;;;;;;;;5074576;28;20411;-48
2022/04/25 03:19:23;;;;;;;11.07;6.77;;;;;;;;;;5074122;28;20419;-48
2022/04/25 03:21:49;;;;;;;8.17;6.00;;;;;;;;;;5073619;28;21047;-48
2022/04/25 03:24:15;;;;;;;8.50;6.30;;;;;;;;;;5074088;28;20412;-48
2022/04/25 03:26:41;;;;;;;7.80;7.00;;;;;;;;;;5074250;28;20457;-48
2022/04/25 03:29:08;;;;;;;6.47;5.60;;;;;;;;;;5074102;28;20416;-48
2022/04/25 03:31:34;;;;;;;8.97;7.13;;;;;;;;;;5072187;28;20423;-48
2022/04/25 03:34:00;;;;;;;13.40;7.57;;;;;;;;;;5073821;28;20419;-49
2022/04/25 03:36:26;;;;;;;7.70;6.90;;;;;;;;;;5072587;28;20403;-48
2022/04/25 03:38:53;;;;;;;8.13;7.10;;;;;;;;;;5073769;28;20920;-48
2022/04/25 03:41:20;;;;;;;10.00;7.50;;;;;;;;;;5071795;28;20512;-48
2022/04/25 03:43:46;;;;;;;7.27;6.60;;;;;;;;;;5073513;28;20465;-51
2022/04/25 03:46:15;;;;;;;10.00;6.77;;;;;;;;;;5073746;28;20404;-51
2022/04/25 03:48:41;;;;;;;10.57;7.00;;;;;;;;;;5073707;28;20420;-48
2022/04/25 03:51:07;;;;;;;7.80;7.00;;;;;;;;;;5073174;28;20413;-47
2022/04/25 03:53:33;;;;;;;11.10;8.13;;;;;;;;;;5074084;28;20785;-48
2022/04/25 03:58:44;;;;;;;10.50;6.50;;;;;;;;;;5073776;28;20431;-48
2022/04/25 04:01:10;;;;;;;7.20;6.50;;;;;;;;;;5073942;28;20403;-48
2022/04/25 04:03:36;;;;;;;21.53;7.17;;;;;;;;;;5073316;28;20506;-50
2022/04/25 04:06:03;;;;;;;11.07;7.23;;;;;;;;;;5073655;28;20406;-48
2022/04/25 04:08:29;;;;;;;9.67;7.03;;;;;;;;;;5073248;28;20412;-48
2022/04/25 04:10:55;;;;;;;9.03;7.10;;;;;;;;;;5072956;28;20425;-47
2022/04/25 04:13:21;;;;;;;8.70;6.17;;;;;;;;;;5073289;28;20517;-47
2022/04/25 04:15:47;;;;;;;8.43;6.20;;;;;;;;;;5073503;28;20463;-47
2022/04/25 04:18:13;;;;;;;8.30;7.00;;;;;;;;;;5073058;28;20423;-48
2022/04/25 04:20:39;;;;;;;7.37;6.57;;;;;;;;;;5089041;28;20405;-53
2022/04/25 04:23:06;;;;;;;7.37;6.63;;;;;;;;;;5072256;28;20456;-50
2022/04/25 04:25:32;;;;;;;8.60;7.13;;;;;;;;;;5073224;28;20886;-49
2022/04/25 04:27:59;;;;;;;9.50;7.60;;;;;;;;;;5073019;28;20505;-50
2022/04/25 04:30:25;;;;;;;9.07;7.80;;;;;;;;;;5073200;28;20410;-49
2022/04/25 04:32:52;;;;;;;8.70;7.47;;;;;;;;;;5070622;28;20417;-51
2022/04/25 04:38:04;;;;;;;8.17;7.10;;;;;;;;;;5072938;28;20454;-50
2022/04/25 04:40:30;;;;;;;8.33;6.90;;;;;;;;;;5073279;28;20460;-53
2022/04/25 04:42:56;;;;;;;9.30;7.30;;;;;;;;;;5071952;28;20463;-54
2022/04/25 04:45:23;;;;;;;9.90;7.37;;;;;;;;;;5072616;28;20428;-53
2022/04/25 04:47:49;;;;;;;9.90;7.70;;;;;;;;;;5072722;28;20403;-53
2022/04/25 04:50:15;;;;;;;10.53;8.50;;;;;;;;;;5072358;28;20937;-51
2022/04/25 04:52:43;;;;;;;12.93;7.80;;;;;;;;;;5071933;28;20505;-54
2022/04/25 04:55:09;;;;;;;10.27;8.73;;;;;;;;;;5072428;28;20419;-53
2022/04/25 04:57:35;;;;;;;12.10;8.40;;;;;;;;;;5071991;28;20990;-55
2022/04/25 05:00:01;;;;;;;8.83;7.93;;;;;;;;;;5072249;28;20803;-53
2022/04/25 05:02:27;;;;;;;10.53;8.30;;;;;;;;;;5071630;28;20456;-54
2022/04/25 05:04:53;;;;;;;10.97;8.43;;;;;;;;;;5072305;28;20502;-53
2022/04/25 05:07:19;;;;;;;11.30;8.80;;;;;;;;;;5072465;28;20395;-53
2022/04/25 05:09:45;;;;;;;15.90;9.43;;;;;;;;;;5072133;28;20467;-54
2022/04/25 05:12:11;;;;;;;13.70;10.07;;;;;;;;;;5071619;28;20950;-52
2022/04/25 05:14:37;;;;;;;12.67;9.93;;;;;;;;;;5072120;28;20419;-52
2022/04/25 05:17:03;;;;;;;15.10;9.23;;;;;;;;;;5072250;28;20405;-52
2022/04/25 05:19:29;;;;;;;13.03;9.53;;;;;;;;;;5072180;28;20420;-51
2022/04/25 05:21:55;;;;;;;13.80;9.20;;;;;;;;;;5071539;28;20474;-54
2022/04/25 05:24:21;;;;;;;11.70;9.47;;;;;;;;;;5071869;28;20958;-52
2022/04/25 05:26:48;;;;;;;20.10;10.30;;;;;;;;;;5072245;28;20471;-54
2022/04/25 05:29:17;;;;;;;11.57;8.97;;;;;;;;;;5071830;28;20413;-51
2022/04/25 05:31:43;;;;;;;12.10;9.53;;;;;;;;;;5069798;28;20495;-54
2022/04/25 05:34:09;;;;;;;12.10;9.47;;;;;;;;;;5071772;28;20423;-54
2022/04/25 05:36:35;;;;;;;12.73;8.93;;;;;;;;;;5072053;28;20392;-54
2022/04/25 05:39:01;;;;;;;11.40;9.20;;;;;;;;;;5070906;28;20482;-55
2022/04/25 05:41:27;;;;;;;15.53;10.07;;;;;;;;;;5071140;28;20832;-51
2022/04/25 05:43:53;;;;;;;14.07;9.10;;;;;;;;;;5071760;28;20443;-54
2022/04/25 05:46:22;;;;;;;15.00;10.23;;;;;;;;;;5072142;28;20416;-51
2022/04/25 05:54:17;;;;;;;12.33;9.47;;;;;;;;;;5071727;28;20485;-53
2022/04/25 05:56:43;;;;;;;11.00;8.80;;;;;;;;;;5072029;28;20421;-53
2022/04/25 05:59:10;;;;;;;11.90;8.77;;;;;;;;;;5071481;28;20427;-53
2022/04/25 06:01:35;;;;;;;10.57;8.50;;;;;;;;;;5070986;28;20786;-53
2022/04/25 06:04:01;;;;;;;10.97;9.10;;;;;;;;;;5071629;28;20415;-54
2022/04/25 06:06:27;;;;;;;14.03;9.80;;;;;;;;;;5071660;28;20884;-54
2022/04/25 06:08:53;;;;;;;12.93;10.60;;;;;;;;;;5073713;28;20493;-53
2022/04/25 06:11:21;;;;;;;13.00;10.20;;;;;;;;;;5074151;28;20512;-53
2022/04/25 06:13:47;;;;;;;11.90;10.30;;;;;;;;;;5075167;28;20939;-51
2022/04/25 06:16:13;;;;;;;14.47;10.63;;;;;;;;;;5075115;28;20403;-53
2022/04/25 06:18:39;;;;;;;12.97;10.10;;;;;;;;;;5074903;28;20408;-53
2022/04/25 06:21:05;;;;;;;14.07;10.10;;;;;;;;;;5074251;28;21338;-53
2022/04/25 06:23:31;;;;;;;13.60;11.30;;;;;;;;;;5074984;28;20468;-53
2022/04/25 06:25:57;;;;;;;14.80;12.10;;;;;;;;;;5075587;28;20762;-54
2022/04/25 06:28:26;;;;;;;13.27;10.37;;;;;;;;;;5075094;28;20424;-53
2022/04/25 06:30:52;;;;;;;16.33;12.63;;;;;;;;;;5074852;28;20822;-51
2022/04/25 06:33:18;;;;;;;15.73;11.67;;;;;;;;;;5073425;28;20784;-51
2022/04/25 06:35:45;;;;;;;13.70;11.47;;;;;;;;;;5075128;28;20457;-51
2022/04/25 06:38:11;;;;;;;13.50;10.17;;;;;;;;;;5074118;28;20415;-50
2022/04/25 06:40:40;;;;;;;13.97;9.80;;;;;;;;;;5075190;28;20491;-51
2022/04/25 06:43:08;;;;;;;13.37;9.00;;;;;;;;;;5074316;28;20544;-51
2022/04/25 06:45:34;;;;;;;7.83;6.97;;;;;;;;;;5075166;28;20416;-51
2022/04/25 06:48:00;;;;;;;8.83;7.77;;;;;;;;;;5074874;28;20939;-51
2022/04/25 06:50:26;;;;;;;7.97;7.17;;;;;;;;;;5074968;28;20439;-52
2022/04/25 06:52:52;;;;;;;9.07;7.40;;;;;;;;;;5074006;28;20864;-51
2022/04/25 06:55:19;;;;;;;8.27;7.00;;;;;;;;;;5075016;28;20458;-53
2022/04/25 06:57:47;;;;;;;7.00;6.00;;;;;;;;;;5074709;28;20507;-53
2022/04/25 07:00:17;;;;;;;9.33;6.83;;;;;;;;;;5074799;28;20412;-54
2022/04/25 07:02:44;;;;;;;6.60;5.30;;;;;;;;;;5073910;28;20467;-53
2022/04/25 07:05:10;;;;;;;9.20;5.40;;;;;;;;;;5074812;28;20407;-54
2022/04/25 07:07:37;;;;;;;6.53;5.93;;;;;;;;;;5074308;28;20977;-51
2022/04/25 07:10:03;;;;;;;8.00;6.00;;;;;;;;;;5074653;28;20430;-52
2022/04/25 07:12:29;;;;;;;9.70;6.77;;;;;;;;;;5073702;28;20590;-53
2022/04/25 07:14:56;;;;;;;6.87;6.10;;;;;;;;;;5074532;28;20939;-54
2022/04/25 07:17:22;;;;;;;7.40;6.70;;;;;;;;;;5073961;28;20420;-54
2022/04/25 07:19:48;;;;;;;7.27;6.40;;;;;;;;;;5072386;28;20428;-51
2022/04/25 07:30:29;;;;;;;9.47;7.60;;;;;;;;;;5073506;28;20931;-53
2022/04/25 07:32:55;;;;;;;8.73;7.80;;;;;;;;;;5072315;28;20833;-53
2022/04/25 07:35:21;;;;;;;11.50;7.53;;;;;;;;;;5073000;28;20419;-52
2022/04/25 07:37:48;;;;;;;9.43;7.67;;;;;;;;;;5072920;28;20503;-53
2022/04/25 07:40:14;;;;;;;7.83;7.13;;;;;;;;;;5074052;28;20408;-54
2022/04/25 07:42:40;;;;;;;9.13;7.23;;;;;;;;;;5072998;28;20448;-53
2022/04/25 07:45:07;;;;;;;9.40;7.53;;;;;;;;;;5074003;28;20416;-53
2022/04/25 07:47:34;;;;;;;11.00;6.90;;;;;;;;;;5068898;28;20408;-53
2022/04/25 07:50:00;;;;;;;7.90;7.10;;;;;;;;;;5073182;28;20416;-52
2022/04/25 07:52:26;;;;;;;7.90;7.03;;;;;;;;;;5072775;28;20467;-51
2022/04/25 07:54:54;;;;;;;6.57;5.97;;;;;;;;;;5071291;28;20585;-52
2022/04/25 07:57:20;;;;;;;14.00;7.13;;;;;;;;;;5073440;28;20408;-53
2022/04/25 07:59:47;;;;;;;8.90;7.43;;;;;;;;;;5073323;28;20461;-53
2022/04/25 08:02:13;;;;;;;8.10;7.30;;;;;;;;;;5072545;28;20483;-52
2022/04/25 08:04:39;;;;;;;9.43;7.90;;;;;;;;;;5073281;28;20427;-51
2022/04/25 08:07:05;;;;;;;9.20;8.00;;;;;;;;;;5073267;28;20444;-53
2022/04/25 08:09:31;;;;;;;11.40;7.40;;;;;;;;;;5073072;28;20526;-53
2022/04/25 08:20:11;;;;;;;12.50;8.00;;;;;;;;;;5072976;28;20482;-54
2022/04/25 08:22:37;;;;;;;9.20;7.60;;;;;;;;;;5070572;28;20486;-52
2022/04/25 08:25:04;;;;;;;9.17;7.90;;;;;;;;;;5072859;28;20872;-53
2022/04/25 08:27:30;;;;;;;9.50;8.50;;;;;;;;;;5072769;28;20403;-54
2022/04/25 08:29:57;;;;;;;8.80;7.40;;;;;;;;;;5072735;28;20480;-54
2022/04/25 08:32:23;;;;;;;8.53;7.73;;;;;;;;;;5071090;28;20416;-53
2022/04/25 08:34:48;;;;;;;10.53;8.33;;;;;;;;;;5072593;28;20488;-53
2022/04/25 08:37:16;;;;;;;10.80;8.80;;;;;;;;;;5072707;28;20884;-54
2022/04/25 08:39:42;;;;;;;13.47;8.10;;;;;;;;;;5072320;28;20407;-51
2022/04/25 08:42:09;;;;;;;13.33;8.60;;;;;;;;;;5071743;28;20562;-54
2022/04/25 08:44:35;;;;;;;9.77;8.60;;;;;;;;;;5072311;28;20792;-54
2022/04/25 08:47:01;;;;;;;13.60;9.20;;;;;;;;;;5071098;28;20463;-52
2022/04/25 08:49:28;;;;;;;14.00;10.13;;;;;;;;;;5072191;28;20405;-54
2022/04/25 08:51:58;;;;;;;13.40;7.93;;;;;;;;;;5071274;28;20460;-53
2022/04/25 08:54:25;;;;;;;11.70;9.83;;;;;;;;;;5072177;28;20942;-54
2022/04/25 08:56:51;;;;;;;11.00;8.43;;;;;;;;;;5071724;28;20414;-51
2022/04/25 08:59:17;;;;;;;9.47;8.53;;;;;;;;;;5070389;28;20412;-52
2022/04/25 09:01:43;;;;;;;9.30;8.40;;;;;;;;;;5070622;28;20464;-52
2022/04/25 09:04:09;;;;;;;12.20;8.27;;;;;;;;;;5072239;28;20440;-54
2022/04/25 09:06:35;;;;;;;11.60;7.80;;;;;;;;;;5071440;28;20823;-54
2022/04/25 09:09:02;;;;;;;10.77;8.67;;;;;;;;;;5072024;28;20467;-54
2022/04/25 09:14:13;;;;;;;10.60;7.67;;;;;;;;;;5071952;28;20422;-53
2022/04/25 09:16:40;;;;;;;11.77;8.43;;;;;;;;;;5072176;28;20401;-49
2022/04/25 09:19:06;;;;;;;10.53;8.40;;;;;;;;;;5071994;28;20767;-49
2022/04/25 09:21:39;;;;;;;13.10;9.60;;;;;;;;;;5071206;28;20422;-48
2022/04/25 09:24:19;;;;;;;11.70;9.47;;;;;;;;;;5071912;28;20404;-48
2022/04/25 09:26:45;;;;;;;10.57;8.73;;;;;;;;;;5071824;28;20403;-48
2022/04/25 09:29:12;;;;;;;14.10;8.40;;;;;;;;;;5071514;28;20382;-51
2022/04/25 09:31:47;;;;;;;10.00;8.40;;;;;;;;;;5071084;28;20412;-53
2022/04/25 09:34:14;;;;;;;10.47;8.70;;;;;;;;;;5071792;28;20450;-52
2022/04/25 09:36:49;;;;;;;13.17;9.40;;;;;;;;;;5071653;28;20400;-51
2022/04/25 09:39:28;;;;;;;11.73;8.60;;;;;;;;;;5071768;28;20443;-50
2022/04/25 09:41:54;;;;;;;8.60;7.70;;;;;;;;;;5070746;28;20430;-48
2022/04/25 09:44:20;;;;;;;9.53;8.53;;;;;;;;;;5071390;28;20784;-49
2022/04/25 09:46:49;;;;;;;9.43;8.53;;;;;;;;;;5071544;28;20417;-52
2022/04/25 09:49:21;;;;;;;10.50;9.40;;;;;;;;;;5071034;28;20899;-54
2022/04/25 09:52:03;;;;;;;18.57;11.97;;;;;;;;;;5070372;28;20466;-50
2022/04/25 09:54:30;;;;;;;11.10;8.70;;;;;;;;;;5064467;28;20456;-50
2022/04/25 09:56:56;;;;;;;10.70;9.07;;;;;;;;;;5070695;28;20403;-50
2022/04/25 09:59:22;;;;;;;10.07;8.70;;;;;;;;;;5071601;28;20460;-51
2022/04/25 10:02:04;;;;;;;9.60;8.00;;;;;;;;;;5070691;28;20396;-51
2022/04/25 10:04:34;;;;;;;8.83;7.73;;;;;;;;;;5071736;28;20371;-50
2022/04/25 10:07:00;;;;;;;10.10;8.90;;;;;;;;;;5071589;28;20375;-52
2022/04/25 10:09:30;;;;;;;10.27;8.47;;;;;;;;;;5071483;28;20422;-50
2022/04/25 10:11:58;;;;;;;7.67;6.97;;;;;;;;;;5061876;28;20403;-52
2022/04/25 10:14:25;;;;;;;8.70;7.50;;;;;;;;;;5051503;28;20410;-52
2022/04/25 10:16:51;;;;;;;9.50;8.37;;;;;;;;;;5051326;28;20461;-50
2022/04/25 10:19:17;;;;;;;9.40;8.50;;;;;;;;;;5051216;28;20485;-52
2022/04/25 10:21:43;;;;;;;9.10;7.53;;;;;;;;;;5050614;28;20402;-52
2022/04/25 10:24:10;;;;;;;16.13;8.00;;;;;;;;;;5051410;28;20379;-51
2022/04/25 10:26:36;;;;;;;7.70;7.00;;;;;;;;;;5051342;28;20493;-52
2022/04/25 10:29:07;;;;;;;9.33;8.43;;;;;;;;;;5051252;28;20402;-53
2022/04/25 10:31:38;;;;;;;9.20;8.30;;;;;;;;;;5050579;28;20418;-52
2022/04/25 10:34:05;;;;;;;10.03;9.03;;;;;;;;;;5051457;28;20437;-53
2022/04/25 10:36:37;;;;;;;8.40;7.70;;;;;;;;;;5051306;28;20412;-49
2022/04/25 10:39:15;;;;;;;8.20;7.50;;;;;;;;;;5051233;28;20767;-52
2022/04/25 10:44:31;;;;;;;7.80;7.10;;;;;;;;;;5051195;28;20401;-53
2022/04/25 10:47:06;;;;;;;8.30;7.50;;;;;;;;;;5050819;28;20870;-50
2022/04/25 10:49:42;;;;;;;7.43;6.73;;;;;;;;;;5068736;28;20436;-49
2022/04/25 10:52:26;;;;;;;9.27;8.37;;;;;;;;;;5070208;28;20530;-52
2022/04/25 10:55:04;;;;;;;6.80;6.20;;;;;;;;;;5071202;28;20402;-51
2022/04/25 10:57:30;;;;;;;7.50;6.83;;;;;;;;;;5074621;28;20457;-52
2022/04/25 10:59:56;;;;;;;13.53;7.50;;;;;;;;;;5074364;28;20837;-54
2022/04/25 11:02:29;;;;;;;8.20;7.33;;;;;;;;;;5073804;28;20454;-54
2022/04/25 11:05:10;;;;;;;7.90;7.20;;;;;;;;;;5074407;28;20460;-54
2022/04/25 11:07:37;;;;;;;8.13;7.33;;;;;;;;;;5074439;28;20398;-53
2022/04/25 11:10:03;;;;;;;10.17;7.00;;;;;;;;;;5074315;28;20451;-54
2022/04/25 11:12:48;;;;;;;9.50;8.60;;;;;;;;;;5073902;28;20405;-54
2022/04/25 11:15:34;;;;;;;8.97;7.70;;;;;;;;;;5074330;28;20401;-54
2022/04/25 11:18:19;;;;;;;10.43;9.33;;;;;;;;;;5074151;28;20374;-53
2022/04/25 11:20:55;;;;;;;11.10;9.57;;;;;;;;;;5074126;28;20422;-49
2022/04/25 11:23:26;;;;;;;14.63;9.23;;;;;;;;;;5074022;28;20473;-54
2022/04/25 11:25:53;;;;;;;10.57;9.47;;;;;;;;;;5067649;28;20476;-55
2022/04/25 11:28:19;;;;;;;10.17;9.07;;;;;;;;;;5073971;28;20408;-55
2022/04/25 11:31:05;;;;;;;11.37;10.17;;;;;;;;;;5073509;28;20403;-51
2022/04/25 11:33:40;;;;;;;10.13;9.03;;;;;;;;;;5073515;28;20422;-54
2022/04/25 11:36:07;;;;;;;9.83;8.83;;;;;;;;;;5071990;28;20410;-51
2022/04/25 11:41:21;;;;;;;9.70;8.60;;;;;;;;;;5072736;28;20428;-50
2022/04/25 11:43:48;;;;;;;11.93;9.60;;;;;;;;;;5072321;28;20462;-50
2022/04/25 11:46:14;;;;;;;11.87;9.60;;;;;;;;;;5057187;28;20424;-51
2022/04/25 11:48:40;;;;;;;12.20;9.97;;;;;;;;;;5064203;28;20413;-52
2022/04/25 11:51:06;;;;;;;12.63;10.23;;;;;;;;;;5073217;28;20423;-52
2022/04/25 11:53:32;;;;;;;11.87;9.97;;;;;;;;;;5073583;28;20458;-52
2022/04/25 11:56:01;;;;;;;16.30;12.57;;;;;;;;;;5073652;28;20409;-52
2022/04/25 11:58:30;;;;;;;13.10;11.17;;;;;;;;;;5073756;28;20397;-52
2022/04/25 12:00:56;;;;;;;14.73;10.37;;;;;;;;;;5072503;28;20418;-52
2022/04/25 12:03:24;;;;;;;11.80;9.80;;;;;;;;;;5073359;28;21011;-53
2022/04/25 12:05:50;;;;;;;11.87;9.40;;;;;;;;;;5053333;28;20387;-51
2022/04/25 12:16:39;;;;;;;11.30;9.53;;;;;;;;;;5073153;28;20411;-50
2022/04/25 12:19:08;;;;;;;9.93;9.03;;;;;;;;;;5073012;28;20896;-51
2022/04/25 12:21:35;;;;;;;12.60;9.80;;;;;;;;;;5073974;28;20531;-52
2022/04/25 12:24:01;;;;;;;15.87;9.33;;;;;;;;;;5088589;28;20465;-50
2022/04/25 12:26:32;;;;;;;13.33;9.60;;;;;;;;;;5073240;28;20402;-50
2022/04/25 12:29:00;;;;;;;11.50;9.17;;;;;;;;;;5073068;28;20404;-48
2022/04/25 12:31:26;;;;;;;16.20;11.67;;;;;;;;;;5072698;28;20425;-48
2022/04/25 12:33:53;;;;;;;10.77;9.43;;;;;;;;;;5072996;28;20426;-48
2022/04/25 12:36:20;;;;;;;16.93;11.50;;;;;;;;;;5073090;28;20756;-51
2022/04/25 12:38:56;;;;;;;13.37;10.90;;;;;;;;;;5072529;28;20932;-50
2022/04/25 12:41:30;;;;;;;18.10;11.50;;;;;;;;;;5073188;28;20508;-51
2022/04/25 12:43:56;;;;;;;22.73;15.87;;;;;;;;;;5071321;28;20423;-51
2022/04/25 12:46:39;;;;;;;19.10;14.10;;;;;;;;;;5070716;28;20404;-50
2022/04/25 12:49:13;;;;;;;13.43;11.73;;;;;;;;;;5070782;28;20440;-50
2022/04/25 12:51:52;;;;;;;15.40;12.17;;;;;;;;;;5070675;28;20440;-50
2022/04/25 12:54:20;;;;;;;11.20;9.77;;;;;;;;;;5072392;28;20907;-50
2022/04/25 12:56:46;;;;;;;11.60;9.80;;;;;;;;;;5072422;28;20783;-50
2022/04/25 12:59:12;;;;;;;14.97;9.90;;;;;;;;;;5071977;28;20414;-51
2022/04/25 13:01:38;;;;;;;13.53;10.10;;;;;;;;;;5070838;28;20435;-51
2022/04/25 13:04:05;;;;;;;12.20;10.67;;;;;;;;;;5071965;28;20984;-52
2022/04/25 13:06:32;;;;;;;12.90;10.33;;;;;;;;;;5072280;28;20406;-52
2022/04/25 13:08:57;;;;;;;13.10;10.50;;;;;;;;;;5072134;28;20407;-52
2022/04/25 13:11:23;;;;;;;13.73;10.10;;;;;;;;;;5071538;28;20503;-52
2022/04/25 13:13:51;;;;;;;13.53;11.27;;;;;;;;;;5070271;28;20421;-53
2022/04/25 13:16:17;;;;;;;12.97;10.50;;;;;;;;;;5070586;28;20456;-52
2022/04/25 13:18:43;;;;;;;16.83;11.50;;;;;;;;;;5070401;28;20446;-52
2022/04/25 13:21:10;;;;;;;15.77;12.03;;;;;;;;;;5071087;28;20387;-52
2022/04/25 13:23:36;;;;;;;14.03;11.83;;;;;;;;;;5071998;28;20543;-52
2022/04/25 13:26:02;;;;;;;12.37;10.63;;;;;;;;;;5071852;28;20879;-52
2022/04/25 13:28:29;;;;;;;15.07;11.23;;;;;;;;;;5068173;28;20474;-52
2022/04/25 13:30:55;;;;;;;15.40;12.40;;;;;;;;;;5071051;28;20395;-51
2022/04/25 13:33:21;;;;;;;14.63;11.57;;;;;;;;;;5069954;28;20821;-52
2022/04/25 13:35:47;;;;;;;12.10;10.80;;;;;;;;;;5070810;28;20394;-53
2022/04/25 13:38:13;;;;;;;12.50;10.73;;;;;;;;;;5071881;28;20425;-53
2022/04/25 13:40:39;;;;;;;13.50;10.23;;;;;;;;;;5071330;28;20440;-52
2022/04/25 13:43:07;;;;;;;10.90;9.47;;;;;;;;;;5071240;28;20433;-53
2022/04/25 13:45:33;;;;;;;10.47;9.50;;;;;;;;;;5071637;28;20463;-52
2022/04/25 13:47:59;;;;;;;9.87;8.97;;;;;;;;;;5071660;28;20399;-53
2022/04/25 13:50:26;;;;;;;9.87;8.97;;;;;;;;;;5071223;28;21111;-52
2022/04/25 13:52:52;;;;;;;9.13;8.33;;;;;;;;;;5070722;28;20455;-52
2022/04/25 13:55:18;;;;;;;7.90;7.20;;;;;;;;;;5071769;28;20407;-53
2022/04/25 13:57:45;;;;;;;8.03;7.27;;;;;;;;;;5071549;28;20472;-51
2022/04/25 14:00:11;;;;;;;8.03;7.27;;;;;;;;;;5071642;28;20815;-52
2022/04/25 14:05:22;;;;;;;7.80;7.10;;;;;;;;;;5071759;28;20449;-53
2022/04/25 14:07:48;;;;;;;9.00;6.17;;;;;;;;;;5071250;28;20411;-52
2022/04/25 14:10:14;;;;;;;9.40;6.80;;;;;;;;;;5071093;28;20418;-52
2022/04/25 14:12:40;;;;;;;6.90;6.20;;;;;;;;;;5070719;28;20432;-52
2022/04/25 14:15:06;;;;;;;5.40;5.00;;;;;;;;;;5071042;28;20453;-52
2022/04/25 14:17:32;;;;;;;5.20;4.80;;;;;;;;;;5071562;28;20559;-52
2022/04/25 14:19:58;;;;;;;4.50;4.10;;;;;;;;;;5070742;28;20478;-53
2022/04/25 14:22:24;;;;;;;4.43;3.70;;;;;;;;;;5070395;28;20677;-53
2022/04/25 14:24:50;;;;;;;4.97;4.63;;;;;;;;;;5070942;28;20416;-53
2022/04/25 14:27:16;;;;;;;4.23;3.93;;;;;;;;;;5071151;28;20425;-53
2022/04/25 14:29:42;;;;;;;5.20;4.80;;;;;;;;;;5072382;28;20419;-52
2022/04/25 14:32:08;;;;;;;4.80;4.40;;;;;;;;;;5073561;28;20455;-52
2022/04/25 14:34:34;;;;;;;6.27;5.57;;;;;;;;;;5074925;28;20900;-52
2022/04/25 14:37:00;;;;;;;5.93;5.33;;;;;;;;;;5074746;28;20424;-53
2022/04/25 14:39:28;;;;;;;6.17;5.57;;;;;;;;;;5074288;28;20416;-53
2022/04/25 14:41:54;;;;;;;5.93;5.43;;;;;;;;;;5074302;28;20428;-52
2022/04/25 14:44:20;;;;;;;6.40;5.73;;;;;;;;;;5073974;28;20473;-52
2022/04/25 14:46:46;;;;;;;6.33;5.80;;;;;;;;;;5070448;28;20419;-53
2022/04/25 14:49:15;;;;;;;6.97;6.37;;;;;;;;;;5073400;28;20896;-53
2022/04/25 14:54:30;;;;;;;6.10;5.60;;;;;;;;;;5074681;28;20482;-52
2022/04/25 14:56:56;;;;;;;6.53;5.90;;;;;;;;;;5074034;28;20420;-52
2022/04/25 14:59:22;;;;;;;10.33;6.27;;;;;;;;;;5075065;28;20890;-52
2022/04/25 15:01:51;;;;;;;7.07;6.37;;;;;;;;;;5073864;28;20439;-52
2022/04/25 15:04:19;;;;;;;6.87;6.27;;;;;;;;;;5074842;28;20406;-53
2022/04/25 15:06:46;;;;;;;6.43;5.93;;;;;;;;;;5074621;28;20897;-51
2022/04/25 15:09:12;;;;;;;7.43;6.57;;;;;;;;;;5074665;28;20846;-52
2022/04/25 15:11:39;;;;;;;15.20;7.00;;;;;;;;;;5073408;28;20417;-51
2022/04/25 15:14:05;;;;;;;7.33;6.67;;;;;;;;;;5074431;28;20989;-52
2022/04/25 15:16:31;;;;;;;6.73;6.13;;;;;;;;;;5074627;28;20411;-53
2022/04/25 15:18:57;;;;;;;6.57;5.97;;;;;;;;;;5074339;28;20782;-52
2022/04/25 15:21:23;;;;;;;5.70;5.30;;;;;;;;;;5073770;28;20439;-53
2022/04/25 15:23:49;;;;;;;8.33;6.00;;;;;;;;;;5073863;28;20499;-52
2022/04/25 15:26:15;;;;;;;5.17;4.77;;;;;;;;;;5073933;28;20400;-52
2022/04/25 15:28:41;;;;;;;5.13;4.73;;;;;;;;;;5074292;28;20404;-52
2022/04/25 15:31:07;;;;;;;4.63;4.23;;;;;;;;;;5073652;28;20397;-52
2022/04/25 15:33:33;;;;;;;6.07;5.30;;;;;;;;;;5073521;28;20787;-52